sensor_id;sensor_type;location;lat;lon;timestamp;temperature;humidity
5009;DHT22;2523;51.058;6.922;2022-09-09T00:02:20;17.80;99.90
5009;DHT22;2523;51.058;6.922;2022-09-09T00:05:00;17.90;99.90
5009;DHT22;2523;51.058;6.922;2022-09-09T00:07:47;17.80;99.90
5009;DHT22;2523;51.058;6.922;2022-09-09T00:10:27;17.90;99.90
5009;DHT22;2523;51.058;6.922;2022-09-09T00:13:18;17.80;99.90
5009;DHT22;2523;51.058;6.922;2022-09-09T00:15:54;17.80;99.90
5009;DHT22;2523;51.058;6.922;2022-09-09T00:18:47;17.70;99.90
5009;DHT22;2523;51.058;6.922;2022-09-09T00:21:17;17.70;99.90
5009;DHT22;2523;51.058;6.922;2022-09-09T00:23:54;17.70;99.90
5009;DHT22;2523;51.058;6.922;2022-09-09T00:26:35;17.60;99.90
5009;DHT22;2523;51.058;6.922;2022-09-09T00:31:33;17.50;99.90
5009;DHT22;2523;51.058;6.922;2022-09-09T00:34:05;17.60;99.90
5009;DHT22;2523;51.058;6.922;2022-09-09T00:36:36;17.60;99.90
5009;DHT22;2523;51.058;6.922;2022-09-09T00:39:02;17.60;99.90
5009;DHT22;2523;51.058;6.922;2022-09-09T00:41:52;17.60;99.90
5009;DHT22;2523;51.058;6.922;2022-09-09T00:47:34;17.70;99.90
5009;DHT22;2523;51.058;6.922;2022-09-09T00:56:20;17.70;99.90
5009;DHT22;2523;51.058;6.922;2022-09-09T00:59:03;17.60;99.90
5009;DHT22;2523;51.058;6.922;2022-09-09T01:01:33;17.70;99.90
5009;DHT22;2523;51.058;6.922;2022-09-09T01:03:58;17.70;99.90
5009;DHT22;2523;51.058;6.922;2022-09-09T01:06:31;17.70;99.90
5009;DHT22;2523;51.058;6.922;2022-09-09T01:12:17;17.70;99.90
5009;DHT22;2523;51.058;6.922;2022-09-09T01:14:48;17.60;99.90
5009;DHT22;2523;51.058;6.922;2022-09-09T01:27:40;17.60;99.90
5009;DHT22;2523;51.058;6.922;2022-09-09T01:30:16;17.60;99.90
5009;DHT22;2523;51.058;6.922;2022-09-09T01:32:52;17.50;99.90
5009;DHT22;2523;51.058;6.922;2022-09-09T01:38:02;17.40;99.90
5009;DHT22;2523;51.058;6.922;2022-09-09T01:40:27;17.40;99.90
5009;DHT22;2523;51.058;6.922;2022-09-09T01:42:54;17.30;99.90
5009;DHT22;2523;51.058;6.922;2022-09-09T01:45:21;17.30;99.90
5009;DHT22;2523;51.058;6.922;2022-09-09T01:47:47;17.30;99.90
5009;DHT22;2523;51.058;6.922;2022-09-09T01:50:16;17.30;99.90
5009;DHT22;2523;51.058;6.922;2022-09-09T01:52:43;17.30;99.90
5009;DHT22;2523;51.058;6.922;2022-09-09T01:55:09;17.30;99.90
5009;DHT22;2523;51.058;6.922;2022-09-09T01:57:58;17.30;99.90
5009;DHT22;2523;51.058;6.922;2022-09-09T02:00:26;17.20;99.90
5009;DHT22;2523;51.058;6.922;2022-09-09T02:05:41;17.30;99.90
5009;DHT22;2523;51.058;6.922;2022-09-09T02:08:19;17.30;99.90
5009;DHT22;2523;51.058;6.922;2022-09-09T02:11:11;17.40;99.90
5009;DHT22;2523;51.058;6.922;2022-09-09T02:13:39;17.50;99.90
5009;DHT22;2523;51.058;6.922;2022-09-09T02:16:08;17.50;99.90
5009;DHT22;2523;51.058;6.922;2022-09-09T02:18:45;17.50;99.90
5009;DHT22;2523;51.058;6.922;2022-09-09T02:21:13;17.50;99.90
5009;DHT22;2523;51.058;6.922;2022-09-09T02:23:41;17.60;99.90
5009;DHT22;2523;51.058;6.922;2022-09-09T02:26:10;17.60;99.90
5009;DHT22;2523;51.058;6.922;2022-09-09T02:28:40;17.50;99.90
5009;DHT22;2523;51.058;6.922;2022-09-09T02:31:07;17.50;99.90
5009;DHT22;2523;51.058;6.922;2022-09-09T02:33:37;17.50;99.90
5009;DHT22;2523;51.058;6.922;2022-09-09T02:36:06;17.60;99.90
5009;DHT22;2523;51.058;6.922;2022-09-09T02:38:36;17.60;99.90
5009;DHT22;2523;51.058;6.922;2022-09-09T02:41:03;17.60;99.90
5009;DHT22;2523;51.058;6.922;2022-09-09T02:43:33;17.60;99.90
5009;DHT22;2523;51.058;6.922;2022-09-09T02:48:45;17.60;99.90
5009;DHT22;2523;51.058;6.922;2022-09-09T02:51:18;17.60;99.90
5009;DHT22;2523;51.058;6.922;2022-09-09T02:54:16;17.60;99.90
5009;DHT22;2523;51.058;6.922;2022-09-09T02:56:48;17.60;99.90
5009;DHT22;2523;51.058;6.922;2022-09-09T02:59:15;17.60;99.90
5009;DHT22;2523;51.058;6.922;2022-09-09T03:01:41;17.60;99.90
5009;DHT22;2523;51.058;6.922;2022-09-09T03:04:07;17.60;99.90
5009;DHT22;2523;51.058;6.922;2022-09-09T03:06:33;17.60;99.90
5009;DHT22;2523;51.058;6.922;2022-09-09T03:08:58;17.60;99.90
5009;DHT22;2523;51.058;6.922;2022-09-09T03:11:28;17.50;99.90
5009;DHT22;2523;51.058;6.922;2022-09-09T03:13:54;17.60;99.90
5009;DHT22;2523;51.058;6.922;2022-09-09T03:16:24;17.60;99.90
5009;DHT22;2523;51.058;6.922;2022-09-09T03:18:49;17.60;99.90
5009;DHT22;2523;51.058;6.922;2022-09-09T03:21:15;17.60;99.90
5009;DHT22;2523;51.058;6.922;2022-09-09T03:23:41;17.60;99.90
5009;DHT22;2523;51.058;6.922;2022-09-09T03:26:07;17.60;99.90
5009;DHT22;2523;51.058;6.922;2022-09-09T03:28:33;17.60;99.90
5009;DHT22;2523;51.058;6.922;2022-09-09T03:31:03;17.60;99.90
5009;DHT22;2523;51.058;6.922;2022-09-09T03:33:29;17.60;99.90
5009;DHT22;2523;51.058;6.922;2022-09-09T03:35:55;17.50;99.90
5009;DHT22;2523;51.058;6.922;2022-09-09T03:38:23;17.60;99.90
5009;DHT22;2523;51.058;6.922;2022-09-09T03:40:53;17.50;99.90
5009;DHT22;2523;51.058;6.922;2022-09-09T03:43:26;17.50;99.90
5009;DHT22;2523;51.058;6.922;2022-09-09T03:45:52;17.50;99.90
5009;DHT22;2523;51.058;6.922;2022-09-09T03:48:18;17.50;99.90
5009;DHT22;2523;51.058;6.922;2022-09-09T03:50:49;17.50;99.90
5009;DHT22;2523;51.058;6.922;2022-09-09T03:53:16;17.50;99.90
5009;DHT22;2523;51.058;6.922;2022-09-09T03:55:50;17.50;99.90
5009;DHT22;2523;51.058;6.922;2022-09-09T03:58:18;17.50;99.90
5009;DHT22;2523;51.058;6.922;2022-09-09T04:03:20;17.50;99.90
5009;DHT22;2523;51.058;6.922;2022-09-09T04:05:48;17.50;99.90
5009;DHT22;2523;51.058;6.922;2022-09-09T04:08:14;17.50;99.90
5009;DHT22;2523;51.058;6.922;2022-09-09T04:10:40;17.50;99.90
5009;DHT22;2523;51.058;6.922;2022-09-09T04:13:05;17.50;99.90
5009;DHT22;2523;51.058;6.922;2022-09-09T04:15:31;17.50;99.90
5009;DHT22;2523;51.058;6.922;2022-09-09T04:17:57;17.50;99.90
5009;DHT22;2523;51.058;6.922;2022-09-09T04:20:23;17.50;99.90
5009;DHT22;2523;51.058;6.922;2022-09-09T04:22:49;17.50;99.90
5009;DHT22;2523;51.058;6.922;2022-09-09T04:25:15;17.60;99.90
5009;DHT22;2523;51.058;6.922;2022-09-09T04:27:40;17.70;99.90
5009;DHT22;2523;51.058;6.922;2022-09-09T04:30:07;17.70;99.90
5009;DHT22;2523;51.058;6.922;2022-09-09T04:32:33;17.70;99.90
5009;DHT22;2523;51.058;6.922;2022-09-09T04:34:59;17.80;99.90
5009;DHT22;2523;51.058;6.922;2022-09-09T04:37:25;17.70;99.90
5009;DHT22;2523;51.058;6.922;2022-09-09T04:39:50;17.60;99.90
5009;DHT22;2523;51.058;6.922;2022-09-09T04:42:16;17.70;99.90
5009;DHT22;2523;51.058;6.922;2022-09-09T04:44:44;17.60;99.90
5009;DHT22;2523;51.058;6.922;2022-09-09T04:47:10;17.60;99.90
5009;DHT22;2523;51.058;6.922;2022-09-09T04:49:36;17.60;99.90
5009;DHT22;2523;51.058;6.922;2022-09-09T04:52:03;17.60;99.90
5009;DHT22;2523;51.058;6.922;2022-09-09T04:54:29;17.60;99.90
5009;DHT22;2523;51.058;6.922;2022-09-09T04:56:54;17.60;99.90
5009;DHT22;2523;51.058;6.922;2022-09-09T04:59:20;17.60;99.90
5009;DHT22;2523;51.058;6.922;2022-09-09T05:01:47;17.60;99.90
5009;DHT22;2523;51.058;6.922;2022-09-09T05:04:13;17.60;99.90
5009;DHT22;2523;51.058;6.922;2022-09-09T05:06:40;17.60;99.90
5009;DHT22;2523;51.058;6.922;2022-09-09T05:09:06;17.60;99.90
5009;DHT22;2523;51.058;6.922;2022-09-09T05:11:33;17.60;99.90
5009;DHT22;2523;51.058;6.922;2022-09-09T05:14:02;17.60;99.90
5009;DHT22;2523;51.058;6.922;2022-09-09T05:16:28;17.60;99.90
5009;DHT22;2523;51.058;6.922;2022-09-09T05:18:53;17.60;99.90
5009;DHT22;2523;51.058;6.922;2022-09-09T05:21:21;17.60;99.90
5009;DHT22;2523;51.058;6.922;2022-09-09T05:23:48;17.60;99.90
5009;DHT22;2523;51.058;6.922;2022-09-09T05:26:18;17.60;99.90
5009;DHT22;2523;51.058;6.922;2022-09-09T05:28:44;17.70;99.90
5009;DHT22;2523;51.058;6.922;2022-09-09T05:31:12;17.70;99.90
5009;DHT22;2523;51.058;6.922;2022-09-09T05:33:40;17.70;99.90
5009;DHT22;2523;51.058;6.922;2022-09-09T05:36:17;17.70;99.90
5009;DHT22;2523;51.058;6.922;2022-09-09T05:38:44;17.70;99.90
5009;DHT22;2523;51.058;6.922;2022-09-09T05:41:10;17.70;99.90
5009;DHT22;2523;51.058;6.922;2022-09-09T05:43:37;17.70;99.90
5009;DHT22;2523;51.058;6.922;2022-09-09T05:46:08;17.70;99.90
5009;DHT22;2523;51.058;6.922;2022-09-09T05:48:36;17.70;99.90
5009;DHT22;2523;51.058;6.922;2022-09-09T05:51:03;17.70;99.90
5009;DHT22;2523;51.058;6.922;2022-09-09T05:53:30;17.70;99.90
5009;DHT22;2523;51.058;6.922;2022-09-09T05:56:04;17.80;99.90
5009;DHT22;2523;51.058;6.922;2022-09-09T05:58:34;17.80;99.90
5009;DHT22;2523;51.058;6.922;2022-09-09T06:01:05;17.80;99.90
5009;DHT22;2523;51.058;6.922;2022-09-09T06:03:33;17.80;99.90
5009;DHT22;2523;51.058;6.922;2022-09-09T06:06:01;17.80;99.90
5009;DHT22;2523;51.058;6.922;2022-09-09T06:08:27;17.80;99.90
5009;DHT22;2523;51.058;6.922;2022-09-09T06:10:53;17.80;99.90
5009;DHT22;2523;51.058;6.922;2022-09-09T06:13:19;17.70;99.90
5009;DHT22;2523;51.058;6.922;2022-09-09T06:15:51;17.80;99.90
5009;DHT22;2523;51.058;6.922;2022-09-09T06:18:17;17.80;99.90
5009;DHT22;2523;51.058;6.922;2022-09-09T06:21:03;17.80;99.90
5009;DHT22;2523;51.058;6.922;2022-09-09T06:23:35;17.90;99.90
5009;DHT22;2523;51.058;6.922;2022-09-09T06:26:03;17.90;99.90
5009;DHT22;2523;51.058;6.922;2022-09-09T06:28:29;18.00;99.90
5009;DHT22;2523;51.058;6.922;2022-09-09T06:30:59;17.90;99.90
5009;DHT22;2523;51.058;6.922;2022-09-09T06:33:24;17.90;99.90
5009;DHT22;2523;51.058;6.922;2022-09-09T06:35:54;17.90;99.90
5009;DHT22;2523;51.058;6.922;2022-09-09T06:38:20;18.00;99.90
5009;DHT22;2523;51.058;6.922;2022-09-09T06:40:55;17.90;99.90
5009;DHT22;2523;51.058;6.922;2022-09-09T06:43:21;17.90;99.90
5009;DHT22;2523;51.058;6.922;2022-09-09T06:45:58;17.90;99.90
5009;DHT22;2523;51.058;6.922;2022-09-09T06:48:24;17.90;99.90
5009;DHT22;2523;51.058;6.922;2022-09-09T06:51:07;17.90;99.90
5009;DHT22;2523;51.058;6.922;2022-09-09T06:53:34;18.00;99.90
5009;DHT22;2523;51.058;6.922;2022-09-09T06:56:27;18.10;99.90
5009;DHT22;2523;51.058;6.922;2022-09-09T06:58:55;18.10;99.90
5009;DHT22;2523;51.058;6.922;2022-09-09T07:01:26;18.10;99.90
5009;DHT22;2523;51.058;6.922;2022-09-09T07:03:54;18.20;99.90
5009;DHT22;2523;51.058;6.922;2022-09-09T07:06:25;18.20;99.90
5009;DHT22;2523;51.058;6.922;2022-09-09T07:08:55;18.20;99.90
5009;DHT22;2523;51.058;6.922;2022-09-09T07:11:22;18.30;99.90
5009;DHT22;2523;51.058;6.922;2022-09-09T07:13:49;18.30;99.90
5009;DHT22;2523;51.058;6.922;2022-09-09T07:16:17;18.30;99.90
5009;DHT22;2523;51.058;6.922;2022-09-09T07:18:44;18.40;99.90
5009;DHT22;2523;51.058;6.922;2022-09-09T07:21:11;18.50;99.90
5009;DHT22;2523;51.058;6.922;2022-09-09T07:23:40;18.50;99.90
5009;DHT22;2523;51.058;6.922;2022-09-09T07:26:18;18.60;99.90
5009;DHT22;2523;51.058;6.922;2022-09-09T07:28:45;18.60;99.90
5009;DHT22;2523;51.058;6.922;2022-09-09T07:31:19;18.60;99.90
5009;DHT22;2523;51.058;6.922;2022-09-09T07:33:46;18.70;99.90
5009;DHT22;2523;51.058;6.922;2022-09-09T07:36:16;18.70;99.90
5009;DHT22;2523;51.058;6.922;2022-09-09T07:38:45;18.70;99.90
5009;DHT22;2523;51.058;6.922;2022-09-09T07:41:17;18.80;99.90
5009;DHT22;2523;51.058;6.922;2022-09-09T07:43:44;18.90;99.90
5009;DHT22;2523;51.058;6.922;2022-09-09T07:46:12;18.90;99.90
5009;DHT22;2523;51.058;6.922;2022-09-09T07:48:43;19.00;99.90
5009;DHT22;2523;51.058;6.922;2022-09-09T07:51:11;19.20;99.90
5009;DHT22;2523;51.058;6.922;2022-09-09T07:53:38;19.40;99.90
5009;DHT22;2523;51.058;6.922;2022-09-09T07:56:10;19.60;99.90
5009;DHT22;2523;51.058;6.922;2022-09-09T07:58:37;19.80;99.90
5009;DHT22;2523;51.058;6.922;2022-09-09T08:01:10;19.70;99.90
5009;DHT22;2523;51.058;6.922;2022-09-09T08:03:37;19.70;99.90
5009;DHT22;2523;51.058;6.922;2022-09-09T08:06:04;19.70;99.90
5009;DHT22;2523;51.058;6.922;2022-09-09T08:08:32;19.70;99.90
5009;DHT22;2523;51.058;6.922;2022-09-09T08:11:13;19.60;99.90
5009;DHT22;2523;51.058;6.922;2022-09-09T08:13:41;19.60;99.90
5009;DHT22;2523;51.058;6.922;2022-09-09T08:16:13;19.60;99.90
5009;DHT22;2523;51.058;6.922;2022-09-09T08:18:40;19.60;99.90
5009;DHT22;2523;51.058;6.922;2022-09-09T08:21:08;19.60;99.90
5009;DHT22;2523;51.058;6.922;2022-09-09T08:23:34;19.70;99.90
5009;DHT22;2523;51.058;6.922;2022-09-09T08:26:10;19.70;99.90
5009;DHT22;2523;51.058;6.922;2022-09-09T08:28:36;19.70;99.90
5009;DHT22;2523;51.058;6.922;2022-09-09T08:31:09;19.80;99.90
5009;DHT22;2523;51.058;6.922;2022-09-09T08:33:35;19.80;99.90
5009;DHT22;2523;51.058;6.922;2022-09-09T08:36:04;19.70;99.90
5009;DHT22;2523;51.058;6.922;2022-09-09T08:38:29;19.90;99.90
5009;DHT22;2523;51.058;6.922;2022-09-09T08:41:00;19.90;99.90
5009;DHT22;2523;51.058;6.922;2022-09-09T08:43:28;20.10;99.90
5009;DHT22;2523;51.058;6.922;2022-09-09T08:46:05;20.20;99.90
5009;DHT22;2523;51.058;6.922;2022-09-09T08:51:18;20.10;99.90
5009;DHT22;2523;51.058;6.922;2022-09-09T08:53:48;20.00;99.90
5009;DHT22;2523;51.058;6.922;2022-09-09T08:56:21;20.00;99.90
5009;DHT22;2523;51.058;6.922;2022-09-09T08:58:53;20.00;99.90
5009;DHT22;2523;51.058;6.922;2022-09-09T09:04:41;20.10;99.90
5009;DHT22;2523;51.058;6.922;2022-09-09T09:12:28;20.40;99.90
5009;DHT22;2523;51.058;6.922;2022-09-09T09:14:55;20.30;99.90
5009;DHT22;2523;51.058;6.922;2022-09-09T09:17:25;20.40;99.90
5009;DHT22;2523;51.058;6.922;2022-09-09T09:19:52;20.40;99.90
5009;DHT22;2523;51.058;6.922;2022-09-09T09:22:21;20.40;99.90
5009;DHT22;2523;51.058;6.922;2022-09-09T09:27:36;20.50;99.90
5009;DHT22;2523;51.058;6.922;2022-09-09T09:32:53;20.40;99.90
5009;DHT22;2523;51.058;6.922;2022-09-09T09:35:19;20.30;99.90
5009;DHT22;2523;51.058;6.922;2022-09-09T09:37:45;20.30;99.90
5009;DHT22;2523;51.058;6.922;2022-09-09T09:40:14;20.30;99.90
5009;DHT22;2523;51.058;6.922;2022-09-09T09:42:56;20.30;99.90
5009;DHT22;2523;51.058;6.922;2022-09-09T09:45:41;20.30;99.90
5009;DHT22;2523;51.058;6.922;2022-09-09T09:48:11;20.30;99.90
5009;DHT22;2523;51.058;6.922;2022-09-09T09:50:57;20.40;99.90
5009;DHT22;2523;51.058;6.922;2022-09-09T09:53:29;20.40;99.90
5009;DHT22;2523;51.058;6.922;2022-09-09T09:55:56;20.40;99.90
5009;DHT22;2523;51.058;6.922;2022-09-09T09:58:23;20.30;99.90
5009;DHT22;2523;51.058;6.922;2022-09-09T10:00:50;20.30;99.90
5009;DHT22;2523;51.058;6.922;2022-09-09T10:03:30;20.20;99.90
5009;DHT22;2523;51.058;6.922;2022-09-09T10:05:56;20.40;99.90
5009;DHT22;2523;51.058;6.922;2022-09-09T10:08:26;20.40;99.90
5009;DHT22;2523;51.058;6.922;2022-09-09T10:19:27;20.80;99.90
5009;DHT22;2523;51.058;6.922;2022-09-09T10:22:25;20.90;99.90
5009;DHT22;2523;51.058;6.922;2022-09-09T10:24:53;21.30;99.90
5009;DHT22;2523;51.058;6.922;2022-09-09T10:30:44;22.20;99.90
5009;DHT22;2523;51.058;6.922;2022-09-09T10:36:27;22.20;99.90
5009;DHT22;2523;51.058;6.922;2022-09-09T10:39:03;22.20;99.90
5009;DHT22;2523;51.058;6.922;2022-09-09T10:41:56;22.10;99.90
5009;DHT22;2523;51.058;6.922;2022-09-09T10:44:46;22.00;99.90
5009;DHT22;2523;51.058;6.922;2022-09-09T10:47:40;21.80;99.90
5009;DHT22;2523;51.058;6.922;2022-09-09T10:55:39;21.40;99.90
5009;DHT22;2523;51.058;6.922;2022-09-09T10:58:32;21.50;99.90
5009;DHT22;2523;51.058;6.922;2022-09-09T11:01:02;21.80;99.90
5009;DHT22;2523;51.058;6.922;2022-09-09T11:03:29;22.10;98.50
5009;DHT22;2523;51.058;6.922;2022-09-09T11:06:06;22.00;96.00
5009;DHT22;2523;51.058;6.922;2022-09-09T11:08:38;22.20;99.00
5009;DHT22;2523;51.058;6.922;2022-09-09T11:11:21;22.40;94.60
5009;DHT22;2523;51.058;6.922;2022-09-09T11:13:53;22.60;93.50
5009;DHT22;2523;51.058;6.922;2022-09-09T11:19:36;22.10;98.10
5009;DHT22;2523;51.058;6.922;2022-09-09T11:22:16;21.90;96.00
5009;DHT22;2523;51.058;6.922;2022-09-09T11:30:00;21.20;99.90
5009;DHT22;2523;51.058;6.922;2022-09-09T11:38:29;20.80;99.90
5009;DHT22;2523;51.058;6.922;2022-09-09T11:40:59;20.80;99.90
5009;DHT22;2523;51.058;6.922;2022-09-09T11:43:32;20.80;99.90
5009;DHT22;2523;51.058;6.922;2022-09-09T11:46:01;21.00;99.90
5009;DHT22;2523;51.058;6.922;2022-09-09T11:48:36;21.10;99.90
5009;DHT22;2523;51.058;6.922;2022-09-09T11:51:28;21.30;99.90
5009;DHT22;2523;51.058;6.922;2022-09-09T11:54:00;21.30;98.50
5009;DHT22;2523;51.058;6.922;2022-09-09T11:56:44;21.40;98.80
5009;DHT22;2523;51.058;6.922;2022-09-09T11:59:23;21.30;97.30
5009;DHT22;2523;51.058;6.922;2022-09-09T12:02:12;21.30;99.90
5009;DHT22;2523;51.058;6.922;2022-09-09T12:10:25;21.20;99.90
5009;DHT22;2523;51.058;6.922;2022-09-09T12:12:52;21.10;99.90
5009;DHT22;2523;51.058;6.922;2022-09-09T12:15:28;21.00;99.90
5009;DHT22;2523;51.058;6.922;2022-09-09T12:17:56;20.80;99.90
5009;DHT22;2523;51.058;6.922;2022-09-09T12:20:33;20.90;99.90
5009;DHT22;2523;51.058;6.922;2022-09-09T12:31:40;20.40;99.90
5009;DHT22;2523;51.058;6.922;2022-09-09T12:36:56;20.10;99.90
5009;DHT22;2523;51.058;6.922;2022-09-09T12:39:30;20.20;99.90
5009;DHT22;2523;51.058;6.922;2022-09-09T12:41:59;20.40;99.90
5009;DHT22;2523;51.058;6.922;2022-09-09T12:44:25;20.50;99.90
5009;DHT22;2523;51.058;6.922;2022-09-09T12:46:54;20.50;99.90
5009;DHT22;2523;51.058;6.922;2022-09-09T12:49:36;20.60;99.90
5009;DHT22;2523;51.058;6.922;2022-09-09T12:52:34;20.30;99.90
5009;DHT22;2523;51.058;6.922;2022-09-09T12:55:03;19.80;99.90
5009;DHT22;2523;51.058;6.922;2022-09-09T12:57:35;19.60;99.90
5009;DHT22;2523;51.058;6.922;2022-09-09T13:00:10;19.10;99.90
5009;DHT22;2523;51.058;6.922;2022-09-09T13:02:52;18.90;99.90
5009;DHT22;2523;51.058;6.922;2022-09-09T13:05:24;18.90;99.90
5009;DHT22;2523;51.058;6.922;2022-09-09T13:07:50;19.20;99.90
5009;DHT22;2523;51.058;6.922;2022-09-09T13:10:26;19.70;99.90
5009;DHT22;2523;51.058;6.922;2022-09-09T13:12:54;20.40;99.90
5009;DHT22;2523;51.058;6.922;2022-09-09T13:15:22;20.50;99.90
5009;DHT22;2523;51.058;6.922;2022-09-09T13:17:54;20.40;99.90
5009;DHT22;2523;51.058;6.922;2022-09-09T13:20:21;20.30;99.90
5009;DHT22;2523;51.058;6.922;2022-09-09T13:22:49;20.10;99.90
5009;DHT22;2523;51.058;6.922;2022-09-09T13:25:24;20.20;99.90
5009;DHT22;2523;51.058;6.922;2022-09-09T13:28:04;20.20;99.90
5009;DHT22;2523;51.058;6.922;2022-09-09T13:30:32;20.30;99.90
5009;DHT22;2523;51.058;6.922;2022-09-09T13:35:53;20.10;99.90
5009;DHT22;2523;51.058;6.922;2022-09-09T13:38:19;20.00;99.90
5009;DHT22;2523;51.058;6.922;2022-09-09T13:41:18;20.20;99.90
5009;DHT22;2523;51.058;6.922;2022-09-09T13:43:46;20.40;99.90
5009;DHT22;2523;51.058;6.922;2022-09-09T13:46:30;20.80;99.90
5009;DHT22;2523;51.058;6.922;2022-09-09T13:51:47;21.00;99.90
5009;DHT22;2523;51.058;6.922;2022-09-09T13:54:15;20.80;99.90
5009;DHT22;2523;51.058;6.922;2022-09-09T13:56:42;20.60;99.90
5009;DHT22;2523;51.058;6.922;2022-09-09T13:59:13;20.40;99.90
5009;DHT22;2523;51.058;6.922;2022-09-09T14:01:39;20.20;99.90
5009;DHT22;2523;51.058;6.922;2022-09-09T14:04:06;20.10;99.90
5009;DHT22;2523;51.058;6.922;2022-09-09T14:06:32;20.00;99.90
5009;DHT22;2523;51.058;6.922;2022-09-09T14:09:00;19.90;99.90
5009;DHT22;2523;51.058;6.922;2022-09-09T14:11:25;19.80;99.90
5009;DHT22;2523;51.058;6.922;2022-09-09T14:13:51;19.70;99.90
5009;DHT22;2523;51.058;6.922;2022-09-09T14:16:17;19.70;99.90
5009;DHT22;2523;51.058;6.922;2022-09-09T14:18:44;19.70;99.90
5009;DHT22;2523;51.058;6.922;2022-09-09T14:21:10;19.50;99.90
5009;DHT22;2523;51.058;6.922;2022-09-09T14:23:36;19.50;99.90
5009;DHT22;2523;51.058;6.922;2022-09-09T14:26:04;19.50;99.90
5009;DHT22;2523;51.058;6.922;2022-09-09T14:28:29;19.50;99.90
5009;DHT22;2523;51.058;6.922;2022-09-09T14:30:58;19.50;99.90
5009;DHT22;2523;51.058;6.922;2022-09-09T14:33:24;19.30;99.90
5009;DHT22;2523;51.058;6.922;2022-09-09T14:35:58;19.00;99.90
5009;DHT22;2523;51.058;6.922;2022-09-09T14:38:24;18.90;99.90
5009;DHT22;2523;51.058;6.922;2022-09-09T14:40:50;18.80;99.90
5009;DHT22;2523;51.058;6.922;2022-09-09T14:43:15;18.60;99.90
5009;DHT22;2523;51.058;6.922;2022-09-09T14:45:41;18.60;99.90
5009;DHT22;2523;51.058;6.922;2022-09-09T14:48:07;18.60;99.90
5009;DHT22;2523;51.058;6.922;2022-09-09T14:50:33;18.50;99.90
5009;DHT22;2523;51.058;6.922;2022-09-09T14:53:00;18.40;99.90
5009;DHT22;2523;51.058;6.922;2022-09-09T14:55:25;18.50;99.90
5009;DHT22;2523;51.058;6.922;2022-09-09T14:57:54;18.40;99.90
5009;DHT22;2523;51.058;6.922;2022-09-09T15:00:19;18.50;99.90
5009;DHT22;2523;51.058;6.922;2022-09-09T15:02:45;18.70;99.90
5009;DHT22;2523;51.058;6.922;2022-09-09T15:05:10;18.80;99.90
5009;DHT22;2523;51.058;6.922;2022-09-09T15:07:36;18.90;99.90
5009;DHT22;2523;51.058;6.922;2022-09-09T15:10:02;19.00;99.90
5009;DHT22;2523;51.058;6.922;2022-09-09T15:12:28;19.00;99.90
5009;DHT22;2523;51.058;6.922;2022-09-09T15:14:54;19.10;99.90
5009;DHT22;2523;51.058;6.922;2022-09-09T15:17:20;19.10;99.90
5009;DHT22;2523;51.058;6.922;2022-09-09T15:19:46;19.10;99.90
5009;DHT22;2523;51.058;6.922;2022-09-09T15:22:11;19.20;99.90
5009;DHT22;2523;51.058;6.922;2022-09-09T15:24:37;19.20;99.90
5009;DHT22;2523;51.058;6.922;2022-09-09T15:27:02;19.20;99.90
5009;DHT22;2523;51.058;6.922;2022-09-09T15:29:28;19.20;99.90
5009;DHT22;2523;51.058;6.922;2022-09-09T15:31:54;19.20;99.90
5009;DHT22;2523;51.058;6.922;2022-09-09T15:34:21;19.30;99.90
5009;DHT22;2523;51.058;6.922;2022-09-09T15:36:47;19.20;99.90
5009;DHT22;2523;51.058;6.922;2022-09-09T15:39:15;19.20;99.90
5009;DHT22;2523;51.058;6.922;2022-09-09T15:41:45;19.00;99.90
5009;DHT22;2523;51.058;6.922;2022-09-09T15:44:12;18.90;99.90
5009;DHT22;2523;51.058;6.922;2022-09-09T15:46:38;18.90;99.90
5009;DHT22;2523;51.058;6.922;2022-09-09T15:51:30;18.90;99.90
5009;DHT22;2523;51.058;6.922;2022-09-09T15:53:57;18.90;99.90
5009;DHT22;2523;51.058;6.922;2022-09-09T15:56:24;19.00;99.90
5009;DHT22;2523;51.058;6.922;2022-09-09T15:58:50;19.10;99.90
5009;DHT22;2523;51.058;6.922;2022-09-09T16:01:17;19.10;99.90
5009;DHT22;2523;51.058;6.922;2022-09-09T16:03:44;19.20;99.90
5009;DHT22;2523;51.058;6.922;2022-09-09T16:06:16;19.20;99.90
5009;DHT22;2523;51.058;6.922;2022-09-09T16:08:43;19.30;99.90
5009;DHT22;2523;51.058;6.922;2022-09-09T16:11:16;19.40;99.90
5009;DHT22;2523;51.058;6.922;2022-09-09T16:13:43;19.40;99.90
5009;DHT22;2523;51.058;6.922;2022-09-09T16:16:11;19.40;99.90
5009;DHT22;2523;51.058;6.922;2022-09-09T16:18:40;19.40;99.90
5009;DHT22;2523;51.058;6.922;2022-09-09T16:21:06;19.30;99.90
5009;DHT22;2523;51.058;6.922;2022-09-09T16:23:36;19.30;99.90
5009;DHT22;2523;51.058;6.922;2022-09-09T16:26:01;19.20;99.90
5009;DHT22;2523;51.058;6.922;2022-09-09T16:28:27;19.00;99.90
5009;DHT22;2523;51.058;6.922;2022-09-09T16:30:53;19.00;99.90
5009;DHT22;2523;51.058;6.922;2022-09-09T16:33:19;18.80;99.90
5009;DHT22;2523;51.058;6.922;2022-09-09T16:35:45;18.60;99.90
5009;DHT22;2523;51.058;6.922;2022-09-09T16:38:11;18.50;99.90
5009;DHT22;2523;51.058;6.922;2022-09-09T16:40:37;18.40;99.90
5009;DHT22;2523;51.058;6.922;2022-09-09T16:43:04;18.40;99.90
5009;DHT22;2523;51.058;6.922;2022-09-09T16:45:30;18.40;99.90
5009;DHT22;2523;51.058;6.922;2022-09-09T16:47:57;18.50;99.90
5009;DHT22;2523;51.058;6.922;2022-09-09T16:50:23;18.50;99.90
5009;DHT22;2523;51.058;6.922;2022-09-09T16:52:48;18.50;99.90
5009;DHT22;2523;51.058;6.922;2022-09-09T16:55:14;18.50;99.90
5009;DHT22;2523;51.058;6.922;2022-09-09T16:57:39;18.40;99.90
5009;DHT22;2523;51.058;6.922;2022-09-09T17:00:07;18.50;99.90
5009;DHT22;2523;51.058;6.922;2022-09-09T17:02:33;18.50;99.90
5009;DHT22;2523;51.058;6.922;2022-09-09T17:04:58;18.50;99.90
5009;DHT22;2523;51.058;6.922;2022-09-09T17:07:24;18.50;99.90
5009;DHT22;2523;51.058;6.922;2022-09-09T17:09:50;18.40;99.90
5009;DHT22;2523;51.058;6.922;2022-09-09T17:12:16;18.30;99.90
5009;DHT22;2523;51.058;6.922;2022-09-09T17:14:42;18.30;99.90
5009;DHT22;2523;51.058;6.922;2022-09-09T17:17:07;18.40;99.90
5009;DHT22;2523;51.058;6.922;2022-09-09T17:19:33;18.40;99.90
5009;DHT22;2523;51.058;6.922;2022-09-09T17:22:00;18.40;99.90
5009;DHT22;2523;51.058;6.922;2022-09-09T17:24:29;18.30;99.90
5009;DHT22;2523;51.058;6.922;2022-09-09T17:26:54;18.20;99.90
5009;DHT22;2523;51.058;6.922;2022-09-09T17:29:20;18.10;99.90
5009;DHT22;2523;51.058;6.922;2022-09-09T17:31:46;18.10;99.90
5009;DHT22;2523;51.058;6.922;2022-09-09T17:34:12;18.00;99.90
5009;DHT22;2523;51.058;6.922;2022-09-09T17:36:38;18.10;99.90
5009;DHT22;2523;51.058;6.922;2022-09-09T17:39:05;18.00;99.90
5009;DHT22;2523;51.058;6.922;2022-09-09T17:41:34;18.00;99.90
5009;DHT22;2523;51.058;6.922;2022-09-09T17:44:00;18.00;99.90
5009;DHT22;2523;51.058;6.922;2022-09-09T17:46:31;18.00;99.90
5009;DHT22;2523;51.058;6.922;2022-09-09T17:49:02;17.90;99.90
5009;DHT22;2523;51.058;6.922;2022-09-09T17:51:30;17.90;99.90
5009;DHT22;2523;51.058;6.922;2022-09-09T17:54:00;17.90;99.90
5009;DHT22;2523;51.058;6.922;2022-09-09T17:56:29;17.90;99.90
5009;DHT22;2523;51.058;6.922;2022-09-09T17:59:00;17.90;99.90
5009;DHT22;2523;51.058;6.922;2022-09-09T18:01:29;17.80;99.90
5009;DHT22;2523;51.058;6.922;2022-09-09T18:03:56;17.80;99.90
5009;DHT22;2523;51.058;6.922;2022-09-09T18:06:26;17.80;99.90
5009;DHT22;2523;51.058;6.922;2022-09-09T18:09:00;17.80;99.90
5009;DHT22;2523;51.058;6.922;2022-09-09T18:11:29;17.80;99.90
5009;DHT22;2523;51.058;6.922;2022-09-09T18:13:59;17.80;99.90